Time;durP1;ratioP1;P1;durP2;ratioP2;P2;SDS_P1;SDS_P2;PMS_P1;PMS_P2;Temp;Humidity;BMP_temperature;BMP_pressure;BME280_temperature;BME280_humidity;BME280_pressure;Samples;Min_cycle;Max_cycle;Signal;HPM_P1;HPM_P2
2022/02/11 00:01:05;;;;;;;12.20;6.70;;;;;;;6.82;72.73;100916.44;5048504;28;20417;-80
2022/02/11 00:08:59;;;;;;;8.02;6.97;;;;;;;6.78;72.63;100908.75;5049811;28;20405;-81
2022/02/11 00:11:39;;;;;;;8.38;6.68;;;;;;;6.71;72.53;100910.66;5053303;28;20394;-80
2022/02/11 00:14:07;;;;;;;8.75;7.07;;;;;;;6.68;72.34;100904.88;5042584;28;20424;-80
2022/02/11 00:16:34;;;;;;;11.02;7.50;;;;;;;6.65;72.04;100910.66;5050586;28;20444;-81
2022/02/11 00:18:59;;;;;;;11.90;8.45;;;;;;;6.64;71.87;100915.22;5052861;28;20410;-81
2022/02/11 00:21:28;;;;;;;9.67;6.17;;;;;;;6.59;71.25;100906.91;5050980;28;20405;-81
2022/02/11 00:23:54;;;;;;;7.78;6.55;;;;;;;6.58;70.65;100915.22;5052840;28;20507;-81
2022/02/11 00:26:19;;;;;;;7.07;6.00;;;;;;;6.59;69.70;100922.25;5053251;28;20861;-80
2022/02/11 00:34:02;;;;;;;8.67;5.90;;;;;;;6.55;69.67;100916.44;5051032;28;20405;-80
2022/02/11 00:36:34;;;;;;;7.28;5.72;;;;;;;6.60;69.73;100907.75;5052761;28;20398;-80
2022/02/11 00:42:59;;;;;;;6.47;5.13;;;;;;;6.61;69.16;100907.56;5052507;28;20397;-80
2022/02/11 01:04:15;;;;;;;7.03;4.82;;;;;;;6.74;68.88;100922.88;5050794;28;20393;-81
2022/02/11 01:06:41;;;;;;;14.95;4.60;;;;;;;6.70;69.31;100909.00;5052196;28;20524;-80
2022/02/11 01:09:08;;;;;;;5.88;4.07;;;;;;;6.73;68.99;100918.50;5049567;28;20432;-81
2022/02/11 01:11:47;;;;;;;5.75;4.97;;;;;;;6.73;69.80;100924.75;5048715;28;20389;-80
2022/02/11 01:14:12;;;;;;;6.70;4.80;;;;;;;6.73;69.60;100927.44;5049174;28;20401;-81
2022/02/11 01:19:18;;;;;;;5.30;4.80;;;;;;;6.73;69.94;100929.28;5045757;28;20461;-80
2022/02/11 01:22:00;;;;;;;5.43;4.40;;;;;;;6.83;69.17;100928.88;5049481;28;20413;-80
2022/02/11 01:27:17;;;;;;;9.10;5.47;;;;;;;6.73;70.66;100935.50;5051823;28;20393;-80
2022/02/11 01:37:36;;;;;;;7.73;5.40;;;;;;;6.62;74.42;100948.75;5042782;28;20406;-80
2022/02/11 01:43:37;;;;;;;7.78;5.53;;;;;;;6.52;76.17;100942.97;5051586;28;20413;-80
2022/02/11 01:45:32;;;;;;;9.80;5.72;;;;;;;6.47;77.19;100945.44;5050773;28;20463;-80
2022/02/11 01:50:49;;;;;;;7.63;6.10;;;;;;;6.29;78.89;100951.41;5047121;28;20401;-80
2022/02/11 01:53:28;;;;;;;7.90;6.03;;;;;;;6.34;78.98;100946.28;5049708;28;20734;-80
2022/02/11 01:56:16;;;;;;;6.47;5.72;;;;;;;6.34;79.40;100954.34;5050230;28;20401;-80
2022/02/11 02:15:35;;;;;;;10.00;6.88;;;;;;;6.08;81.76;100962.38;5051248;28;20431;-81
2022/02/11 02:23:32;;;;;;;9.55;6.82;;;;;;;6.15;82.25;100973.97;5049375;28;20373;-80
2022/02/11 02:26:21;;;;;;;13.07;6.93;;;;;;;6.06;82.73;100975.22;5050971;28;20434;-81
2022/02/11 02:32:26;;;;;;;10.85;7.60;;;;;;;6.08;83.04;100984.72;5050883;28;20466;-81
2022/02/11 02:37:39;;;;;;;10.88;7.82;;;;;;;6.04;83.79;100996.09;5047473;28;20416;-81
2022/02/11 02:50:12;;;;;;;12.47;9.13;;;;;;;6.14;83.45;101007.31;5048443;28;20753;-81
2022/02/11 02:56:55;;;;;;;8.55;7.07;;;;;;;6.12;82.91;101036.28;5049692;28;20757;-81
2022/02/11 03:14:33;;;;;;;5.97;4.93;;;;;;;6.08;83.19;101045.78;5064364;28;20496;-81
2022/02/11 03:35:00;;;;;;;3.22;2.65;;;;;;;5.91;81.55;101112.56;5051213;28;20405;-82
2022/02/11 03:48:57;;;;;;;1.98;1.60;;;;;;;6.00;79.31;101137.41;5050150;28;20895;-80
2022/02/11 03:51:44;;;;;;;1.70;1.60;;;;;;;5.93;78.91;101144.66;5049387;28;20799;-81
2022/02/11 04:24:51;;;;;;;1.40;1.05;;;;;;;5.80;77.27;101206.34;5046773;28;20828;-80
2022/02/11 04:56:36;;;;;;;2.33;2.13;;;;;;;5.46;78.12;101280.56;5047797;28;20405;-80
2022/02/11 05:01:45;;;;;;;1.20;1.20;;;;;;;5.24;78.73;101295.81;5052709;28;20401;-81
2022/02/11 05:04:11;;;;;;;1.17;0.90;;;;;;;5.18;78.84;101301.94;5050790;28;20393;-80
2022/02/11 05:06:36;;;;;;;1.40;1.40;;;;;;;5.24;78.93;101297.66;5050960;28;20738;-80
2022/02/11 05:09:02;;;;;;;0.80;0.80;;;;;;;5.25;78.70;101296.66;5052726;28;20384;-81
2022/02/11 05:11:28;;;;;;;1.30;1.20;;;;;;;5.22;78.34;101299.72;5050790;28;20393;-80
2022/02/11 05:13:53;;;;;;;1.53;1.53;;;;;;;5.24;78.97;101308.41;5045117;28;20470;-80
2022/02/11 05:16:18;;;;;;;1.90;1.00;;;;;;;5.14;78.89;101315.94;5043843;28;20399;-80
2022/02/11 05:18:43;;;;;;;1.20;1.10;;;;;;;5.04;78.82;101316.25;5050879;28;20472;-81
2022/02/11 05:21:09;;;;;;;2.20;2.10;;;;;;;4.98;79.13;101308.09;5036812;28;20508;-81
2022/02/11 05:23:34;;;;;;;1.92;1.83;;;;;;;4.95;78.89;101313.84;5036128;28;21034;-81
2022/02/11 05:25:59;;;;;;;1.30;1.30;;;;;;;4.80;79.32;101324.63;5061295;28;20417;-81
2022/02/11 05:28:25;;;;;;;1.20;1.20;;;;;;;4.75;79.28;101327.03;5044304;28;20409;-81
2022/02/11 05:30:50;;;;;;;1.48;1.42;;;;;;;4.77;79.30;101325.00;5038373;28;20423;-81
2022/02/11 05:33:16;;;;;;;1.60;1.10;;;;;;;4.63;79.43;101328.50;5046276;28;20393;-81
2022/02/11 05:35:41;;;;;;;1.43;1.37;;;;;;;4.51;79.75;101327.31;5039569;28;20469;-81
2022/02/11 05:38:07;;;;;;;2.58;1.60;;;;;;;4.43;80.24;101338.97;5046752;28;20466;-81
2022/02/11 05:40:33;;;;;;;1.67;1.60;;;;;;;4.49;80.12;101340.06;5046868;28;20413;-80
2022/02/11 05:42:58;;;;;;;2.03;1.92;;;;;;;4.46;79.93;101343.13;5049015;28;20413;-81
2022/02/11 05:45:23;;;;;;;2.27;2.07;;;;;;;4.45;79.53;101342.28;5049560;28;20519;-81
2022/02/11 05:47:49;;;;;;;3.20;2.90;;;;;;;4.41;79.76;101361.63;5045527;28;20415;-81
2022/02/11 05:50:14;;;;;;;3.97;3.10;;;;;;;4.32;79.94;101363.53;5046248;28;20576;-80
2022/02/11 05:52:39;;;;;;;4.33;3.70;;;;;;;4.28;79.88;101362.22;5038467;28;20880;-80
2022/02/11 05:55:05;;;;;;;9.07;5.27;;;;;;;4.17;80.21;101368.91;5043865;28;20473;-80
2022/02/11 05:57:30;;;;;;;15.73;8.43;;;;;;;4.17;79.62;101371.56;5048993;28;20413;-80
2022/02/11 05:59:56;;;;;;;15.70;8.87;;;;;;;4.28;79.35;101390.94;5039432;28;20440;-80
2022/02/11 06:02:22;;;;;;;15.57;9.25;;;;;;;4.23;79.29;101393.31;5044675;28;20478;-81
2022/02/11 06:04:47;;;;;;;18.00;9.82;;;;;;;4.15;79.08;101394.22;5046702;28;20742;-81
2022/02/11 06:07:12;;;;;;;19.47;10.07;;;;;;;4.20;78.93;101391.84;5062116;28;20399;-81
2022/02/11 06:09:37;;;;;;;19.70;10.57;;;;;;;4.15;78.70;101391.53;5050681;28;20964;-81
2022/02/11 06:12:03;;;;;;;21.23;11.17;;;;;;;4.06;78.67;101406.88;5049709;28;20431;-82
2022/02/11 06:14:29;;;;;;;25.45;11.95;;;;;;;4.08;78.07;101401.34;5048088;28;20438;-81
2022/02/11 06:16:54;;;;;;;19.70;9.75;;;;;;;4.07;77.72;101415.75;5045244;28;20743;-81
2022/02/11 06:19:19;;;;;;;9.25;5.70;;;;;;;3.96;77.98;101429.56;5036901;28;20500;-81
2022/02/11 06:21:45;;;;;;;7.70;4.80;;;;;;;3.90;77.83;101433.81;5035021;28;20762;-82
2022/02/11 06:24:10;;;;;;;4.77;2.87;;;;;;;3.90;77.40;101435.66;5043551;28;20406;-81
2022/02/11 06:26:36;;;;;;;4.18;3.25;;;;;;;3.79;78.02;101433.38;5038009;28;20452;-82
2022/02/11 06:29:02;;;;;;;9.95;4.45;;;;;;;3.78;77.93;101439.75;5040676;28;20407;-80
2022/02/11 06:31:27;;;;;;;17.63;7.50;;;;;;;3.71;78.45;101434.25;5027847;28;20423;-80
2022/02/11 06:33:53;;;;;;;16.00;7.90;;;;;;;3.64;78.40;101442.19;5031862;28;21173;-80
2022/02/11 06:36:19;;;;;;;14.60;6.57;;;;;;;3.58;79.32;101434.00;5024303;28;20461;-80
2022/02/11 06:38:44;;;;;;;20.20;8.10;;;;;;;3.65;79.12;101441.13;5028043;28;20450;-85
2022/02/11 06:41:09;;;;;;;18.10;7.33;;;;;;;3.65;78.69;101451.06;5032240;28;20440;-80
2022/02/11 06:43:35;;;;;;;14.30;5.77;;;;;;;3.72;78.85;101465.44;5040717;28;20432;-80
2022/02/11 06:46:01;;;;;;;12.93;6.23;;;;;;;3.79;78.84;101471.72;5038300;28;20434;-80
2022/02/11 06:48:27;;;;;;;4.32;3.38;;;;;;;3.81;78.51;101475.09;5030522;28;20402;-80
2022/02/11 06:50:54;;;;;;;3.42;2.88;;;;;;;3.73;78.32;101495.72;5040561;28;20983;-80
2022/02/11 06:53:19;;;;;;;5.38;3.28;;;;;;;3.71;78.63;101493.25;5032281;28;20405;-80
2022/02/11 06:55:45;;;;;;;6.10;4.00;;;;;;;3.64;78.70;101501.16;5036453;28;20913;-80
2022/02/11 06:58:12;;;;;;;4.45;3.95;;;;;;;3.60;79.04;101507.84;5033429;28;21291;-80
2022/02/11 07:00:44;;;;;;;8.15;6.38;;;;;;;3.54;79.31;101513.06;5040449;28;20502;-80
2022/02/11 07:03:10;;;;;;;10.50;6.67;;;;;;;3.71;78.68;101520.06;5036965;28;20465;-80
2022/02/11 07:05:38;;;;;;;10.75;6.18;;;;;;;3.73;78.60;101522.53;5042648;28;20413;-80
2022/02/11 07:08:04;;;;;;;10.32;4.68;;;;;;;3.81;77.89;101530.56;5050845;28;20409;-80
2022/02/11 07:10:30;;;;;;;5.35;4.20;;;;;;;3.81;77.97;101543.97;5037765;28;20764;-80
2022/02/11 07:12:55;;;;;;;7.53;4.38;;;;;;;3.66;78.54;101547.38;5038085;28;20403;-80
2022/02/11 07:15:20;;;;;;;5.57;4.30;;;;;;;3.68;78.53;101552.56;5041420;28;20527;-80
2022/02/11 07:17:46;;;;;;;5.80;3.67;;;;;;;3.66;78.73;101562.59;5034102;28;20430;-80
2022/02/11 07:20:11;;;;;;;6.45;4.03;;;;;;;3.82;78.13;101570.59;5046919;28;20465;-80
2022/02/11 07:22:37;;;;;;;7.37;3.57;;;;;;;3.92;78.23;101579.25;5054485;28;20419;-81
2022/02/11 07:25:11;;;;;;;8.38;3.70;;;;;;;3.95;78.08;101591.50;5042875;28;20409;-80
2022/02/11 07:27:37;;;;;;;6.13;3.70;;;;;;;3.96;77.93;101596.69;5042767;28;20408;-80
2022/02/11 07:30:03;;;;;;;7.65;3.65;;;;;;;4.08;77.94;101602.50;5043890;28;20770;-80
2022/02/11 07:32:30;;;;;;;4.05;3.50;;;;;;;4.29;77.42;101607.25;5041547;28;20413;-80
2022/02/11 07:34:58;;;;;;;4.45;3.40;;;;;;;4.39;76.48;101608.72;5034976;28;20407;-81
2022/02/11 07:37:25;;;;;;;6.50;3.20;;;;;;;4.47;75.34;101615.88;5045336;28;20417;-80
2022/02/11 07:39:50;;;;;;;4.45;3.50;;;;;;;4.45;74.97;101623.25;5045312;28;20419;-80
2022/02/11 07:42:15;;;;;;;6.63;3.70;;;;;;;4.31;75.40;101614.13;5063718;28;20428;-80
2022/02/11 07:44:41;;;;;;;6.13;3.90;;;;;;;4.35;74.99;101630.69;5047182;28;20414;-80
2022/02/11 07:47:06;;;;;;;8.80;4.57;;;;;;;4.44;74.72;101635.88;5048563;28;20463;-79
2022/02/11 07:49:34;;;;;;;8.50;4.53;;;;;;;4.39;73.33;101626.66;5036811;28;20419;-79
2022/02/11 07:51:59;;;;;;;7.50;3.97;;;;;;;4.16;74.29;101629.28;5039935;28;20770;-79
2022/02/11 07:54:26;;;;;;;7.23;3.93;;;;;;;4.06;75.93;101629.50;5050266;28;20998;-80
2022/02/11 07:56:52;;;;;;;5.07;4.25;;;;;;;4.24;76.62;101626.56;5043451;28;20983;-79
2022/02/11 07:59:18;;;;;;;7.72;3.70;;;;;;;4.45;75.66;101618.72;5035565;28;20505;-80
2022/02/11 08:01:43;;;;;;;5.87;3.47;;;;;;;4.63;74.97;101616.63;5041189;28;20402;-79
2022/02/11 08:04:08;;;;;;;8.60;4.30;;;;;;;4.80;74.32;101611.13;5036730;28;20420;-82
2022/02/11 08:06:33;;;;;;;6.33;3.67;;;;;;;4.89;74.12;101615.41;5043441;28;20524;-79
2022/02/11 08:08:58;;;;;;;7.40;4.40;;;;;;;5.01;74.04;101628.25;5036742;28;20399;-78
2022/02/11 08:11:24;;;;;;;8.53;4.70;;;;;;;5.16;73.15;101629.13;5048727;28;20401;-81
2022/02/11 08:13:49;;;;;;;9.85;4.63;;;;;;;5.19;73.38;101633.31;5035575;28;20461;-80
2022/02/11 08:16:14;;;;;;;7.90;4.40;;;;;;;5.30;72.99;101638.25;5033174;28;20477;-80
2022/02/11 08:18:40;;;;;;;6.93;4.47;;;;;;;5.52;71.18;101645.44;5045249;28;20415;-80
2022/02/11 08:21:05;;;;;;;9.02;4.95;;;;;;;5.49;71.79;101656.56;5035407;28;20913;-80
2022/02/11 08:23:30;;;;;;;5.87;4.60;;;;;;;5.68;71.16;101655.19;5035916;28;20401;-81
2022/02/11 08:25:56;;;;;;;6.73;4.63;;;;;;;5.74;70.80;101660.66;5059852;28;20894;-80
2022/02/11 08:28:21;;;;;;;8.85;5.30;;;;;;;6.09;70.00;101679.84;5044080;28;20497;-80
2022/02/11 08:30:49;;;;;;;10.23;4.90;;;;;;;6.40;68.85;101676.91;5036310;28;20422;-81
2022/02/11 08:33:17;;;;;;;7.78;4.80;;;;;;;6.57;67.18;101692.69;5046940;28;20415;-81
2022/02/11 08:35:44;;;;;;;11.23;4.93;;;;;;;6.73;66.98;101695.16;5041822;28;20406;-80
2022/02/11 08:38:09;;;;;;;6.25;4.57;;;;;;;6.61;66.67;101704.75;5042395;28;20405;-81
2022/02/11 08:40:35;;;;;;;8.38;5.13;;;;;;;6.54;66.11;101719.16;5033535;28;20813;-81
2022/02/11 08:43:01;;;;;;;8.23;5.07;;;;;;;6.16;67.81;101723.78;5036057;28;20421;-81
2022/02/11 08:45:27;;;;;;;11.52;5.40;;;;;;;6.04;68.36;101727.97;5040449;28;20952;-81
2022/02/11 08:47:52;;;;;;;9.63;4.57;;;;;;;5.95;67.80;101715.63;5037679;28;20454;-81
2022/02/11 08:50:18;;;;;;;7.82;4.38;;;;;;;5.81;67.92;101728.00;5061143;28;20468;-80
2022/02/11 08:52:45;;;;;;;7.45;4.78;;;;;;;5.97;68.57;101735.94;5033890;28;20387;-80
2022/02/11 08:55:10;;;;;;;12.52;5.20;;;;;;;5.95;69.33;101743.38;5046111;28;20519;-81
2022/02/11 08:57:43;;;;;;;7.40;4.20;;;;;;;6.26;67.11;101743.19;5032064;28;20469;-81
2022/02/11 09:00:09;;;;;;;12.70;6.78;;;;;;;6.91;66.10;101754.03;5041836;28;20934;-80
2022/02/11 09:02:34;;;;;;;11.52;7.57;;;;;;;6.38;66.31;101767.81;5039279;28;20401;-81
2022/02/11 09:05:00;;;;;;;9.37;4.83;;;;;;;5.93;68.36;101771.50;5049329;28;20412;-81
2022/02/11 09:07:25;;;;;;;9.03;5.30;;;;;;;5.71;69.02;101759.72;5041598;28;20418;-81
2022/02/11 09:09:50;;;;;;;10.03;5.77;;;;;;;5.37;69.99;101773.59;5046760;28;20401;-80
2022/02/11 09:12:15;;;;;;;10.27;5.53;;;;;;;5.38;69.62;101782.50;5043179;28;20407;-80
2022/02/11 09:14:41;;;;;;;9.83;5.73;;;;;;;5.38;70.15;101786.00;5038180;28;20770;-80
2022/02/11 09:17:06;;;;;;;6.95;5.13;;;;;;;5.44;69.66;101796.06;5032335;28;20407;-80
2022/02/11 09:19:31;;;;;;;10.20;5.03;;;;;;;5.67;68.51;101799.56;5049907;28;20416;-80
2022/02/11 09:21:57;;;;;;;11.90;5.03;;;;;;;6.01;67.56;101799.16;5034888;28;20421;-80
2022/02/11 09:24:22;;;;;;;9.50;4.60;;;;;;;6.32;65.80;101798.19;5036957;28;20467;-80
2022/02/11 09:26:47;;;;;;;14.23;5.53;;;;;;;6.35;65.86;101797.81;5043549;28;20464;-80
2022/02/11 09:29:13;;;;;;;13.00;4.77;;;;;;;6.30;65.64;101787.59;5031532;28;20510;-80
2022/02/11 09:31:38;;;;;;;10.40;4.97;;;;;;;6.23;66.58;101792.03;5037218;28;20520;-80
2022/02/11 09:34:04;;;;;;;7.20;4.33;;;;;;;6.03;66.72;101802.47;5036988;28;20414;-80
2022/02/11 09:36:31;;;;;;;9.60;5.10;;;;;;;6.20;66.78;101801.31;5045090;28;20442;-80
2022/02/11 09:38:56;;;;;;;9.75;5.30;;;;;;;6.36;66.66;101808.38;5040379;28;20849;-79
2022/02/11 09:41:24;;;;;;;6.73;5.50;;;;;;;6.32;66.81;101806.25;5030930;28;20461;-78
2022/02/11 09:43:49;;;;;;;12.65;7.00;;;;;;;6.44;66.99;101807.47;5045815;28;20454;-80
2022/02/11 09:46:15;;;;;;;9.50;5.57;;;;;;;7.11;65.84;101808.97;5041296;28;20404;-80
2022/02/11 09:48:40;;;;;;;12.35;6.00;;;;;;;8.67;61.55;101813.28;5043735;28;20783;-80
2022/02/11 09:51:05;;;;;;;10.93;6.10;;;;;;;8.01;61.89;101819.22;5037844;28;20514;-80
2022/02/11 09:53:31;;;;;;;7.87;4.63;;;;;;;8.54;61.37;101805.09;5032122;28;20884;-80
2022/02/11 09:55:56;;;;;;;13.15;5.72;;;;;;;9.93;55.94;101809.06;5035302;28;20448;-80
2022/02/11 09:58:21;;;;;;;9.37;5.33;;;;;;;9.88;55.99;101801.56;5036994;28;20909;-80
2022/02/11 10:00:49;;;;;;;7.07;4.57;;;;;;;10.45;55.06;101817.19;5031462;28;20427;-80
2022/02/11 10:03:26;;;;;;;9.73;4.40;;;;;;;9.96;56.04;101816.78;5044703;28;20416;-80
2022/02/11 10:05:57;;;;;;;8.60;5.28;;;;;;;9.86;56.20;101820.75;5036907;28;20443;-80
2022/02/11 10:08:24;;;;;;;14.43;5.18;;;;;;;10.15;55.67;101824.94;5039619;28;20954;-80
2022/02/11 10:10:54;;;;;;;9.60;5.10;;;;;;;9.35;57.78;101822.31;5043041;28;20444;-80
2022/02/11 10:13:25;;;;;;;7.80;4.53;;;;;;;8.83;59.52;101844.53;5032365;28;20399;-80
2022/02/11 10:15:56;;;;;;;8.53;4.40;;;;;;;8.76;59.34;101840.97;5032768;28;20546;-80
2022/02/11 10:18:27;;;;;;;6.90;4.43;;;;;;;8.04;62.26;101859.31;5044715;28;20409;-80
2022/02/11 10:21:00;;;;;;;10.88;5.15;;;;;;;7.71;61.92;101864.41;5046228;28;20459;-80
2022/02/11 10:23:27;;;;;;;8.57;4.47;;;;;;;7.70;62.31;101873.56;5031293;28;20426;-80
2022/02/11 10:26:06;;;;;;;10.00;4.90;;;;;;;7.35;63.56;101877.91;5035300;28;20866;-81
2022/02/11 10:28:40;;;;;;;9.15;5.13;;;;;;;6.77;65.20;101879.66;5031812;28;20438;-79
2022/02/11 10:31:05;;;;;;;10.57;5.07;;;;;;;6.50;65.97;101882.13;5037899;28;20437;-79
2022/02/11 10:33:47;;;;;;;7.73;4.40;;;;;;;6.56;65.03;101882.22;5036906;28;20443;-80
2022/02/11 10:36:21;;;;;;;7.80;4.75;;;;;;;6.48;66.47;101886.88;5042166;28;20413;-79
2022/02/11 10:38:58;;;;;;;8.85;5.00;;;;;;;6.37;67.39;101898.91;5050534;28;20409;-80
2022/02/11 10:41:24;;;;;;;12.25;4.72;;;;;;;6.58;66.18;101895.53;5045170;28;20492;-79
2022/02/11 10:43:51;;;;;;;9.67;4.80;;;;;;;6.61;65.47;101906.78;5035488;28;20409;-79
2022/02/11 10:46:17;;;;;;;11.13;5.10;;;;;;;6.37;67.01;101901.59;5057060;28;20506;-79
2022/02/11 10:48:42;;;;;;;8.87;4.70;;;;;;;6.29;66.94;101917.00;5049625;28;20409;-78
2022/02/11 10:51:08;;;;;;;9.60;5.03;;;;;;;6.32;66.77;101912.09;5036898;28;20402;-79
2022/02/11 10:53:41;;;;;;;8.77;5.30;;;;;;;6.35;67.47;101908.19;5035046;28;20418;-79
2022/02/11 10:56:09;;;;;;;9.75;5.60;;;;;;;6.36;67.19;101905.31;5048450;28;20405;-80
2022/02/11 10:58:34;;;;;;;11.23;5.40;;;;;;;6.18;68.35;101905.66;5038001;28;20415;-80
2022/02/11 11:01:03;;;;;;;9.30;5.97;;;;;;;6.30;68.27;101911.44;5036986;28;20419;-79
2022/02/11 11:03:34;;;;;;;10.23;5.27;;;;;;;6.62;67.02;101900.34;5037418;28;20402;-79
2022/02/11 11:06:04;;;;;;;9.87;4.50;;;;;;;6.77;65.39;101911.97;5034125;28;20496;-77
2022/02/11 11:08:34;;;;;;;12.30;5.03;;;;;;;6.95;65.28;101908.09;5037125;28;20428;-79
2022/02/11 11:11:02;;;;;;;10.02;4.43;;;;;;;6.81;65.00;101920.53;5031652;28;20407;-79
2022/02/11 11:13:28;;;;;;;10.48;4.85;;;;;;;6.88;64.38;101921.47;5040864;28;20441;-80
2022/02/11 11:15:55;;;;;;;10.98;4.47;;;;;;;6.90;63.75;101924.81;5041017;28;20901;-79
2022/02/11 11:18:21;;;;;;;11.10;4.00;;;;;;;6.49;64.69;101920.84;5037835;28;20409;-79
2022/02/11 11:20:48;;;;;;;8.05;4.20;;;;;;;6.23;65.87;101923.94;5045435;28;20467;-79
2022/02/11 11:23:28;;;;;;;10.02;4.13;;;;;;;6.33;65.63;101919.13;5041774;28;20417;-79
2022/02/11 11:26:10;;;;;;;9.00;4.00;;;;;;;6.21;66.56;101920.59;5048153;28;20902;-79
2022/02/11 11:28:45;;;;;;;6.70;4.22;;;;;;;6.38;65.19;101916.75;5040298;28;20803;-80
2022/02/11 11:31:23;;;;;;;8.13;4.18;;;;;;;6.51;65.36;101927.75;5047662;28;20915;-79
2022/02/11 11:33:49;;;;;;;9.65;4.10;;;;;;;6.55;64.08;101925.53;5041759;28;20432;-79
2022/02/11 11:36:17;;;;;;;9.57;4.28;;;;;;;6.53;64.61;101931.06;5034261;28;20414;-80
2022/02/11 11:38:44;;;;;;;8.02;4.68;;;;;;;6.54;65.02;101930.06;5032807;28;20418;-80
2022/02/11 11:41:14;;;;;;;12.02;6.30;;;;;;;6.21;66.29;101934.06;5046769;28;20483;-79
2022/02/11 11:44:00;;;;;;;9.30;4.57;;;;;;;6.00;67.25;101925.78;5035515;28;20789;-79
2022/02/11 11:46:32;;;;;;;8.15;4.35;;;;;;;5.93;67.65;101931.06;5039953;28;20768;-79
2022/02/11 11:48:59;;;;;;;8.20;4.23;;;;;;;6.16;66.68;101931.91;5047528;28;20426;-81
2022/02/11 11:51:31;;;;;;;9.82;3.85;;;;;;;6.15;66.86;101930.25;5037177;28;20419;-79
2022/02/11 11:54:15;;;;;;;7.15;4.07;;;;;;;6.13;66.71;101932.25;5047746;28;20803;-80
2022/02/11 11:56:42;;;;;;;8.23;3.85;;;;;;;6.19;66.82;101931.53;5045692;28;20403;-79
2022/02/11 11:59:14;;;;;;;8.98;4.20;;;;;;;6.37;66.11;101928.53;5047192;28;20404;-78
2022/02/11 12:02:06;;;;;;;9.32;4.50;;;;;;;6.41;65.64;101929.84;5044415;28;20407;-79
2022/02/11 12:04:39;;;;;;;8.57;4.35;;;;;;;6.07;66.67;101927.59;5038528;28;20834;-79
2022/02/11 12:07:07;;;;;;;8.17;3.93;;;;;;;6.13;66.93;101924.19;5040490;28;20481;-78
2022/02/11 12:09:32;;;;;;;11.43;4.30;;;;;;;6.24;65.61;101929.16;5040751;28;20432;-78
2022/02/11 12:12:09;;;;;;;10.02;4.65;;;;;;;6.33;65.65;101924.53;5033757;28;20474;-78
2022/02/11 12:14:36;;;;;;;7.97;4.40;;;;;;;6.35;65.38;101929.75;5039535;28;20392;-78
2022/02/11 12:17:04;;;;;;;7.15;3.83;;;;;;;6.27;65.97;101919.88;5041718;28;20395;-79
2022/02/11 12:19:31;;;;;;;12.52;4.50;;;;;;;6.30;65.82;101926.75;5046277;28;20486;-79
2022/02/11 12:21:57;;;;;;;12.07;5.25;;;;;;;6.25;66.26;101928.13;5041890;28;20405;-77
2022/02/11 12:27:31;;;;;;;8.37;4.73;;;;;;;6.28;66.57;101926.09;5041376;28;20431;-79
2022/02/11 12:29:57;;;;;;;6.75;3.80;;;;;;;6.28;66.71;101921.56;5036943;28;20728;-81
2022/02/11 12:32:31;;;;;;;17.35;5.65;;;;;;;6.43;66.49;101914.34;5040957;28;20447;-80
2022/02/11 12:35:02;;;;;;;10.80;4.63;;;;;;;6.35;66.17;101922.50;5046290;28;20399;-78
2022/02/11 12:37:31;;;;;;;6.72;3.45;;;;;;;6.50;65.14;101930.59;5045946;28;20888;-80
2022/02/11 12:40:05;;;;;;;7.15;3.75;;;;;;;6.38;66.37;101926.69;5039502;28;20505;-79
2022/02/11 12:42:31;;;;;;;13.05;4.78;;;;;;;6.50;66.18;101915.28;5040046;28;20429;-78
2022/02/11 12:45:00;;;;;;;12.20;4.15;;;;;;;6.74;65.65;101912.34;5043251;28;20478;-78
2022/02/11 12:47:26;;;;;;;10.57;4.00;;;;;;;6.83;65.74;101917.63;5040810;28;20797;-79
2022/02/11 12:49:52;;;;;;;8.82;4.70;;;;;;;7.16;63.65;101906.31;5041452;28;20417;-77
2022/02/11 12:52:19;;;;;;;7.18;3.58;;;;;;;7.47;62.72;101906.09;5034647;28;20469;-77
2022/02/11 12:54:57;;;;;;;7.53;3.55;;;;;;;7.40;63.96;101899.78;5042564;28;20419;-78
2022/02/11 12:57:22;;;;;;;9.32;3.53;;;;;;;7.29;63.43;101893.00;5044839;28;20411;-78
2022/02/11 12:59:50;;;;;;;7.20;3.40;;;;;;;7.48;63.33;101894.25;5043070;28;20836;-77
2022/02/11 13:02:24;;;;;;;6.07;3.90;;;;;;;7.28;64.41;101896.72;5050613;28;20424;-78
2022/02/11 13:05:07;;;;;;;10.30;3.42;;;;;;;7.14;64.48;101894.88;5041508;28;20736;-78
2022/02/11 13:07:34;;;;;;;4.00;2.95;;;;;;;7.33;63.65;101893.47;5037892;28;20407;-80
2022/02/11 13:10:00;;;;;;;8.70;3.25;;;;;;;7.19;64.10;101899.69;5030704;28;20398;-78
2022/02/11 13:12:37;;;;;;;4.97;3.53;;;;;;;7.21;64.23;101901.16;5059986;28;20394;-77
2022/02/11 13:15:05;;;;;;;7.57;3.17;;;;;;;6.91;65.07;101904.09;5047081;28;20406;-79
2022/02/11 13:17:30;;;;;;;6.93;3.42;;;;;;;6.90;64.78;101897.88;5055257;28;20399;-79
2022/02/11 13:20:21;;;;;;;9.45;3.63;;;;;;;7.16;64.40;101908.16;5047203;28;20411;-80
2022/02/11 13:22:48;;;;;;;5.28;2.75;;;;;;;7.57;62.53;101909.31;5048597;28;20401;-79
2022/02/11 13:25:15;;;;;;;7.97;4.70;;;;;;;7.89;60.44;101912.56;5039752;28;20411;-78
2022/02/11 13:27:56;;;;;;;7.50;3.63;;;;;;;7.73;60.44;101913.63;5031327;28;20490;-79
2022/02/11 13:30:30;;;;;;;13.48;4.85;;;;;;;7.78;59.47;101903.94;5034579;28;20500;-78
2022/02/11 13:32:57;;;;;;;7.95;3.35;;;;;;;7.60;61.03;101911.63;5035954;28;20414;-79
2022/02/11 13:35:23;;;;;;;6.10;2.95;;;;;;;7.74;59.48;101905.34;5040437;28;20435;-78
2022/02/11 13:37:52;;;;;;;9.70;3.28;;;;;;;7.66;59.77;101910.88;5050111;28;20814;-77
2022/02/11 13:40:29;;;;;;;5.88;2.88;;;;;;;7.46;60.48;101906.25;5045484;28;20419;-78
2022/02/11 13:42:59;;;;;;;3.23;2.37;;;;;;;7.55;60.75;101907.81;5031460;28;20493;-79
2022/02/11 13:45:26;;;;;;;4.67;2.90;;;;;;;7.24;60.81;101916.97;5034637;28;20448;-79
2022/02/11 13:48:07;;;;;;;7.18;3.00;;;;;;;7.21;61.34;101906.56;5045067;28;20439;-79
2022/02/11 13:51:06;;;;;;;5.78;2.92;;;;;;;7.66;61.40;101910.03;5035465;28;20403;-78
2022/02/11 13:53:40;;;;;;;6.03;3.20;;;;;;;7.80;60.43;101915.34;5043505;28;20519;-77
2022/02/11 13:56:08;;;;;;;7.27;2.67;;;;;;;7.79;60.88;101919.09;5045147;28;20453;-77
2022/02/11 13:58:33;;;;;;;6.10;2.70;;;;;;;7.66;60.70;101912.72;5044180;28;20405;-76
2022/02/11 14:01:00;;;;;;;6.05;3.15;;;;;;;7.45;60.30;101915.38;5043139;28;20420;-77
2022/02/11 14:03:28;;;;;;;7.90;4.35;;;;;;;7.46;60.21;101912.50;5047332;28;20408;-78
2022/02/11 14:05:56;;;;;;;6.93;3.20;;;;;;;7.78;59.43;101920.13;5038626;28;20397;-78
2022/02/11 14:08:23;;;;;;;5.85;3.03;;;;;;;7.60;59.25;101914.34;5046956;28;20400;-77
2022/02/11 14:11:08;;;;;;;19.33;5.47;;;;;;;7.21;61.05;101901.16;5037612;28;20786;-77
2022/02/11 14:13:33;;;;;;;10.52;4.22;;;;;;;7.12;61.38;101901.47;5031164;28;20395;-77
2022/02/11 14:15:59;;;;;;;10.10;3.30;;;;;;;7.09;60.84;101907.22;5043699;28;20403;-77
2022/02/11 14:18:24;;;;;;;10.27;4.83;;;;;;;6.89;61.12;101914.19;5044248;28;20829;-77
2022/02/11 14:20:49;;;;;;;6.80;3.80;;;;;;;6.87;60.69;101916.25;5034085;28;20520;-76
2022/02/11 14:23:17;;;;;;;11.83;5.03;;;;;;;6.86;60.55;101920.81;5046019;28;20433;-77
2022/02/11 14:25:43;;;;;;;8.73;4.00;;;;;;;6.76;59.06;101921.09;5033226;28;20430;-79
2022/02/11 14:28:10;;;;;;;7.07;2.47;;;;;;;7.07;58.88;101920.91;5041238;28;20451;-82
2022/02/11 14:30:38;;;;;;;10.77;3.65;;;;;;;7.40;60.03;101915.94;5038895;28;20939;-80
2022/02/11 14:33:05;;;;;;;11.52;5.35;;;;;;;7.61;60.37;101921.38;5036224;28;20411;-78
2022/02/11 14:35:30;;;;;;;10.15;3.38;;;;;;;7.72;60.03;101914.66;5033409;28;20502;-79
2022/02/11 14:37:56;;;;;;;6.85;3.03;;;;;;;7.74;59.10;101924.22;5034411;28;20486;-78
2022/02/11 14:40:21;;;;;;;8.33;3.50;;;;;;;7.82;58.95;101924.13;5031696;28;20426;-77
2022/02/11 14:42:46;;;;;;;11.83;5.10;;;;;;;7.58;60.45;101926.31;5033185;28;20426;-79
2022/02/11 14:45:12;;;;;;;7.80;3.37;;;;;;;7.46;59.63;101928.69;5044091;28;20407;-78
2022/02/11 14:47:37;;;;;;;13.80;5.77;;;;;;;7.51;60.16;101926.25;5037082;28;20423;-78
2022/02/11 14:50:05;;;;;;;9.63;4.60;;;;;;;7.35;60.99;101926.44;5042675;28;20504;-78
2022/02/11 14:52:30;;;;;;;8.27;4.07;;;;;;;7.46;60.88;101919.75;5032456;28;20411;-77
2022/02/11 14:54:58;;;;;;;9.10;3.10;;;;;;;7.55;60.12;101924.84;5041741;28;20399;-77
2022/02/11 14:57:23;;;;;;;10.23;4.18;;;;;;;7.25;61.92;101917.81;5038394;28;20417;-77
2022/02/11 14:59:49;;;;;;;7.07;3.33;;;;;;;7.29;61.59;101921.81;5035211;28;20407;-77
2022/02/11 15:02:14;;;;;;;10.13;4.47;;;;;;;7.37;61.74;101916.34;5046997;28;20389;-76